Terminal Aerodrome Forecast
Issued by NWS Sioux Falls, SD

Home | Current Version | Previous Version | Graphics & Text | Print | Product List | Glossary On
Versions: 1 2 3 4 5 6 7 8 9 10 11 12 13
000
FTUS43 KFSD 181141
TAFFSD
TAF
KFSD 181141Z 1812/1912 12005KT P6SM SCT150
     FM181400 15010KT P6SM BKN015
     FM181700 16012G18KT P6SM BKN025
     FM182000 16014G21KT P6SM SCT030
     FM190000 15010KT P6SM FEW030
     FM190600 16014G21KT P6SM SCT010
     FM190900 17014G21KT 4SM BR SCT004 OVC006=

USA.gov is the U.S. government's official web portal to all federal, state and local government web resources and services.